createdAt,value
2018-12-05T00:04:47.653Z,0.90
2018-12-05T00:09:52.698Z,0.90
2018-12-05T00:14:57.785Z,0.90
2018-12-05T00:20:02.801Z,0.80
2018-12-05T00:25:07.872Z,0.90
2018-12-05T00:30:12.946Z,0.90
2018-12-05T00:35:17.959Z,0.90
2018-12-05T00:40:22.814Z,0.90
2018-12-05T00:45:27.787Z,0.80
2018-12-05T00:50:32.695Z,0.80
2018-12-05T00:55:37.535Z,0.80
2018-12-05T01:00:42.493Z,0.80
2018-12-05T01:05:47.364Z,0.70
2018-12-05T01:10:52.205Z,0.60
2018-12-05T01:15:57.217Z,0.60
2018-12-05T01:21:02.165Z,0.60
2018-12-05T01:26:07.217Z,0.60
2018-12-05T01:31:12.221Z,0.50
2018-12-05T01:36:17.244Z,0.60
2018-12-05T01:41:22.365Z,0.70
2018-12-05T01:46:27.244Z,0.60
2018-12-05T01:51:32.280Z,0.60
2018-12-05T01:56:37.225Z,0.60
2018-12-05T02:01:42.076Z,0.50
2018-12-05T02:06:47.141Z,0.50
2018-12-05T02:11:52.215Z,0.50
2018-12-05T02:16:57.245Z,0.50
2018-12-05T02:22:02.148Z,0.40
2018-12-05T02:27:06.928Z,0.40
2018-12-05T02:32:11.885Z,0.40
2018-12-05T02:37:16.809Z,0.30
2018-12-05T02:42:21.666Z,0.40
2018-12-05T02:47:26.606Z,0.30
2018-12-05T02:52:31.444Z,0.30
2018-12-05T02:57:36.435Z,0.30
2018-12-05T03:02:41.420Z,0.20
2018-12-05T03:07:46.164Z,0.20
2018-12-05T03:12:51.128Z,0.10
2018-12-05T03:17:56.174Z,0.10
2018-12-05T03:23:01.274Z,-0.10
2018-12-05T03:28:06.193Z,-0.10
2018-12-05T03:33:11.249Z,-0.20
2018-12-05T03:38:16.211Z,-0.30
2018-12-05T03:43:21.031Z,-0.30
2018-12-05T03:48:26.959Z,-0.40
2018-12-05T03:53:31.949Z,-0.40
2018-12-05T03:58:36.820Z,-0.40
2018-12-05T04:03:41.761Z,-0.40
2018-12-05T04:08:46.594Z,-0.50
2018-12-05T04:13:51.545Z,-0.50
2018-12-05T04:18:56.482Z,-0.60
2018-12-05T04:24:01.442Z,-0.70
2018-12-05T04:29:06.465Z,-0.70
2018-12-05T04:34:11.340Z,-0.80
2018-12-05T04:39:16.709Z,-0.80
2018-12-05T04:44:21.593Z,-0.70
2018-12-05T04:49:26.439Z,-0.80
2018-12-05T04:54:31.325Z,-0.80
2018-12-05T04:59:36.232Z,-0.80
2018-12-05T05:04:40.997Z,-0.80
2018-12-05T05:09:46.164Z,-0.70
2018-12-05T05:14:51.013Z,-0.70
2018-12-05T05:19:55.941Z,-0.70
2018-12-05T05:25:00.724Z,-0.80
2018-12-05T05:30:07.003Z,-0.90
2018-12-05T05:35:12.051Z,-0.90
2018-12-05T05:40:17.008Z,-0.90
2018-12-05T05:45:21.936Z,-1.00
2018-12-05T05:50:26.786Z,-0.90
2018-12-05T05:55:31.726Z,-1.00
2018-12-05T06:00:36.784Z,-1.10
2018-12-05T06:05:42.650Z,-1.10
2018-12-05T06:10:47.792Z,-1.10
2018-12-05T06:15:52.600Z,-1.00
2018-12-05T06:20:57.473Z,-1.10
2018-12-05T06:26:02.559Z,-1.10
2018-12-05T06:31:07.393Z,-1.10
2018-12-05T06:36:12.338Z,-1.20
2018-12-05T06:41:17.257Z,-1.30
2018-12-05T06:46:22.359Z,-1.40
2018-12-05T06:51:27.265Z,-1.30
2018-12-05T06:56:32.313Z,-1.20
2018-12-05T07:01:37.384Z,-1.20
2018-12-05T07:06:42.331Z,-1.30
2018-12-05T07:11:47.390Z,-1.40
2018-12-05T07:16:52.210Z,-1.40
2018-12-05T07:21:57.070Z,-1.30
2018-12-05T07:27:02.025Z,-1.30
2018-12-05T07:32:07.076Z,-1.30
2018-12-05T07:37:12.035Z,-1.20
2018-12-05T07:42:16.922Z,-1.10
2018-12-05T07:47:21.712Z,-1.00
2018-12-05T07:52:26.546Z,-0.80
2018-12-05T07:57:31.497Z,-1.00
2018-12-05T08:02:36.366Z,-1.00
2018-12-05T08:07:41.320Z,-1.10
2018-12-05T08:12:46.430Z,-0.90
2018-12-05T08:17:51.295Z,-1.00
2018-12-05T08:22:56.354Z,-0.90
2018-12-05T08:28:01.170Z,-0.70
2018-12-05T08:33:06.244Z,-0.70
2018-12-05T08:38:11.284Z,-0.60
2018-12-05T08:43:16.213Z,-0.50
2018-12-05T08:48:21.066Z,-0.50
2018-12-05T08:53:26.122Z,-0.40
2018-12-05T08:58:31.179Z,-0.30
2018-12-05T09:03:36.142Z,-0.20
2018-12-05T09:08:41.085Z,-0.20
2018-12-05T09:13:45.943Z,-0.10
2018-12-05T09:18:50.852Z,0.00
2018-12-05T09:23:55.832Z,0.10
2018-12-05T09:29:00.754Z,0.20
2018-12-05T09:34:05.622Z,0.40
2018-12-05T09:39:10.686Z,0.50
2018-12-05T09:44:15.520Z,0.60
2018-12-05T09:49:20.461Z,0.80
2018-12-05T09:54:25.494Z,0.90
2018-12-05T09:59:30.451Z,0.90
2018-12-05T10:04:35.597Z,1.10
2018-12-05T10:09:40.554Z,1.20
2018-12-05T10:14:45.605Z,1.10
2018-12-05T10:19:50.657Z,1.20
2018-12-05T10:24:55.705Z,1.20
2018-12-05T10:30:00.745Z,1.40
2018-12-05T10:35:05.800Z,1.50
2018-12-05T10:40:10.856Z,1.50
2018-12-05T10:45:16.020Z,1.60
2018-12-05T10:50:20.972Z,1.60
2018-12-05T10:55:25.803Z,1.50
2018-12-05T11:00:36.039Z,1.60
2018-12-05T11:05:46.052Z,1.70
2018-12-05T11:10:56.048Z,1.80
2018-12-05T11:16:13.002Z,1.80
2018-12-05T11:21:23.484Z,1.90
2018-12-05T11:26:31.748Z,1.90
2018-12-05T11:31:36.699Z,1.90
2018-12-05T11:36:41.516Z,2.00
2018-12-05T11:41:46.348Z,2.00
2018-12-05T11:46:51.306Z,2.10
2018-12-05T11:51:56.176Z,2.10
2018-12-05T11:57:01.117Z,2.10
2018-12-05T12:02:06.085Z,2.10
2018-12-05T12:07:11.218Z,2.10
2018-12-05T12:12:21.342Z,2.00
2018-12-05T12:17:26.324Z,2.10
2018-12-05T12:22:31.381Z,2.10
2018-12-05T12:27:36.238Z,2.10
2018-12-05T12:32:41.060Z,2.10
2018-12-05T12:37:46.210Z,2.10
2018-12-05T12:42:51.181Z,2.30
2018-12-05T12:47:56.133Z,2.30
2018-12-05T12:53:00.986Z,2.20
2018-12-05T12:58:05.917Z,2.30
2018-12-05T13:03:10.900Z,2.20
2018-12-05T13:08:15.821Z,2.30
2018-12-05T13:13:20.809Z,2.20
2018-12-05T13:18:25.857Z,2.10
2018-12-05T13:23:30.901Z,1.90
2018-12-05T13:28:35.819Z,1.90
2018-12-05T13:33:40.663Z,1.90
2018-12-05T13:38:45.616Z,1.80
2018-12-05T13:43:50.644Z,1.80
2018-12-05T13:48:55.706Z,1.70
2018-12-05T13:54:00.673Z,1.60
2018-12-05T13:59:05.619Z,1.60
2018-12-05T14:04:10.643Z,1.60
2018-12-05T14:09:15.612Z,1.40
2018-12-05T14:14:20.557Z,1.50
2018-12-05T14:19:25.641Z,1.30
2018-12-05T14:24:30.538Z,1.20
2018-12-05T14:29:35.605Z,1.10
2018-12-05T14:34:40.452Z,1.00
2018-12-05T14:39:45.676Z,1.00
2018-12-05T14:44:50.818Z,0.90
2018-12-05T14:49:56.660Z,0.80
2018-12-05T14:55:01.735Z,0.70
2018-12-05T15:00:07.266Z,0.60
2018-12-05T15:05:12.144Z,0.50
2018-12-05T15:10:18.391Z,0.40
2018-12-05T15:15:23.409Z,0.20
2018-12-05T15:20:28.278Z,0.20
2018-12-05T15:25:33.302Z,0.10
2018-12-05T15:30:38.481Z,0.00
2018-12-05T15:35:43.711Z,-0.10
2018-12-05T15:40:48.784Z,-0.30
2018-12-05T15:45:53.697Z,-0.30
2018-12-05T15:50:58.649Z,-0.40
2018-12-05T15:56:03.729Z,-0.50
2018-12-05T16:01:08.644Z,-0.60
2018-12-05T16:06:13.692Z,-0.70
2018-12-05T16:11:18.541Z,-0.70
2018-12-05T16:16:23.385Z,-0.80
2018-12-05T16:21:29.415Z,-0.80
2018-12-05T16:26:34.325Z,-0.90
2018-12-05T16:31:39.292Z,-0.90
2018-12-05T16:36:44.512Z,-1.00
2018-12-05T16:41:49.427Z,-1.10
2018-12-05T16:46:55.638Z,-1.10
2018-12-05T16:52:00.689Z,-1.10
2018-12-05T16:57:05.551Z,-1.20
2018-12-05T17:02:10.814Z,-1.30
2018-12-05T17:07:15.636Z,-1.50
2018-12-05T17:12:20.574Z,-1.40
2018-12-05T17:17:25.552Z,-1.60
2018-12-05T17:22:30.467Z,-1.60
2018-12-05T17:27:35.449Z,-1.60
2018-12-05T17:38:25.564Z,-1.60
2018-12-05T17:43:30.539Z,-1.60
2018-12-05T17:48:35.365Z,-1.80
2018-12-05T17:53:40.333Z,-1.80
2018-12-05T17:58:45.246Z,-1.70
2018-12-05T18:03:50.228Z,-1.80
2018-12-05T18:08:55.159Z,-1.80
2018-12-05T18:14:00.201Z,-1.80
2018-12-05T18:19:05.298Z,-1.90
2018-12-05T18:24:10.342Z,-1.90
2018-12-05T18:29:15.448Z,-2.00
2018-12-05T18:34:20.490Z,-2.00
2018-12-05T18:39:25.456Z,-1.90
2018-12-05T18:44:30.485Z,-2.00
2018-12-05T18:49:35.426Z,-2.00
2018-12-05T18:54:40.801Z,-2.00
2018-12-05T18:59:45.741Z,-1.90
2018-12-05T19:04:50.609Z,-1.90
2018-12-05T19:09:55.551Z,-2.00
2018-12-05T19:15:00.408Z,-2.10
2018-12-05T19:20:06.165Z,-2.00
2018-12-05T19:25:11.119Z,-2.00
2018-12-05T19:30:16.070Z,-1.90
2018-12-05T19:35:20.981Z,-2.00
2018-12-05T19:40:25.845Z,-2.00
2018-12-05T19:45:30.901Z,-2.00
2018-12-05T19:50:36.971Z,-2.00
2018-12-05T19:55:41.937Z,-2.00
2018-12-05T20:00:46.711Z,-2.00
2018-12-05T20:05:51.678Z,-2.00
2018-12-05T20:10:56.525Z,-2.00
2018-12-05T20:16:01.426Z,-1.90
2018-12-05T20:21:06.412Z,-1.80
2018-12-05T20:26:11.425Z,-1.70
2018-12-05T20:31:16.416Z,-1.60
2018-12-05T20:36:21.322Z,-1.50
2018-12-05T20:41:32.366Z,-1.30
2018-12-05T20:46:33.407Z,-1.20
2018-12-05T20:51:38.618Z,-1.10
2018-12-05T20:56:43.605Z,-1.00
2018-12-05T21:01:48.708Z,-0.90
2018-12-05T21:06:53.790Z,-0.80
2018-12-05T21:11:58.856Z,-0.70
2018-12-05T21:17:03.802Z,-0.60
2018-12-05T21:22:08.856Z,-0.60
2018-12-05T21:27:13.710Z,-0.50
2018-12-05T21:32:18.625Z,-0.50
2018-12-05T21:37:23.499Z,-0.50
2018-12-05T21:42:28.793Z,-0.40
2018-12-05T21:47:33.704Z,-0.50
2018-12-05T21:52:38.783Z,-0.40
2018-12-05T21:57:43.720Z,-0.30
2018-12-05T22:02:48.730Z,-0.30
2018-12-05T22:07:53.587Z,-0.30
2018-12-05T22:12:58.627Z,-0.30
2018-12-05T22:18:03.497Z,-0.30
2018-12-05T22:23:08.625Z,-0.20
2018-12-05T22:28:13.585Z,-0.20
2018-12-05T22:33:18.552Z,-0.20
2018-12-05T22:38:23.370Z,-0.10
2018-12-05T22:43:28.318Z,0.00
2018-12-05T22:48:33.199Z,0.10
2018-12-05T22:53:38.220Z,0.20
2018-12-05T22:58:43.169Z,0.30
2018-12-05T23:03:48.205Z,0.30
2018-12-05T23:08:52.955Z,0.60
2018-12-05T23:13:57.770Z,1.40
2018-12-05T23:19:02.626Z,1.90
2018-12-05T23:24:07.607Z,2.40
2018-12-05T23:29:12.534Z,2.50
2018-12-05T23:34:17.404Z,2.80
2018-12-05T23:39:22.383Z,2.90
2018-12-05T23:44:27.198Z,3.20
2018-12-05T23:49:32.096Z,3.30
2018-12-05T23:54:37.173Z,3.40
2018-12-05T23:59:42.960Z,3.50
